Airfield :
LOGIN :

Register | Disclaimer

   EN    FR    IT 

 










Legend :    VFR   Marginal VFR   IFR   Intensive IFR   Very Intensive IFR
Visi :
Ceiling :
>= 8 km
>= 3000ft
5 to 8 km
1000 to 3000 ft
1500m to 5 km
500 to 1000 ft
800 to 1500m
200 to 500 ft
< 800m
< 200 ft
Symbols :   Thunderstorms  Fog  Heavy snow  Heavy precipitations  Wind > 20 kt
SIGMETs :     Misc.  Thunderstorms  Icing  Turbulence  Mountain Waves  Volcanic Ashes







- Airport Elevation : 38 ft
- IATA code : ADX


EGQL - RAF Leuchars

CURRENT METAR :
  • 181650Z 09011KT 8000 HZ FEW008 BKN220 09/07 Q1029 BLU

EXPIRED METARs :
  • 181550Z 09013KT 8000 HZ BKN220 10/07 Q1029 BLU
  • 181450Z 09012KT 8000 HZ BKN220 10/08 Q1029 BLU

TAF TAF EGQL
Valid from the 18 at 15:00 until the 19 at 00:00 UTC


181318Z 1815/1824 08012KT 9999 FEW008
TEMPO 1815/1824 SCT008
PROB30
TEMPO 1815/1824 5000 BR SCT006
No reported NOTAMs for that airfield.



MET'MAP, your aeronautical weather chart ! - Copyright ORBIFLY December 2007 - Disclaimer

ORBIFLY MET'MAP TEAM :

Programming & Development : Alexandra Zaïnal
Concept & Development : Baudouin d'Aumeries
Co-Development & Prog : Marc-Olivier Méhu
Technical & hardware support : Manuel Goepfert

Contact : metmap@orbifly.com




SOURCES & CREDITS :

   NOAA